aviador You're here:

YSDU Decoded Metar

DUBBO in AUSTRALIA
Report Time2017-11-23 20:00:00
UTC Time2017-11-23 20:30:41
Flight Rules vfr VFR
Wind110° at 05 kt
W.Decomp.*RWY 11: 4.9 kt HW 0.9 kt LCW
RWY 05: 3.2 kt HW 3.8 kt RCW
W.Rank110° ranks 4
Current wind is below 110° avg. (7.9)
Visibility9999 m
Phenomena:N/A
Clouds:N/A
Expected CloudBase > 2,400 ft AGL from Temp-Dew spread
CeilingNone
Temp18°C (ISA +5)
Dew Point12°C (68% RH)
AAT16.8°C
QNH1017 hPa
Density Alt1,522 ft
Elevation902 ft
Report Wrong Elevation
Raw Report
YSDU 232000Z AUTO 11005KT 9999 // NCD 18/12 Q1017=

Extra information for YSDU:More info

Metar Taf Metar & Taf Last 4 Metars F.Rules Stats Wind Profile Meteogram Temp Stats Airport Information Weather charts Add Link Nearby VenuesMetar ALERT Operation Metar Decoded Social comments